createdAt,value
2017-12-12T00:01:03.635Z,14.47
2017-12-12T00:03:33.431Z,15.13
2017-12-12T00:06:02.419Z,14.93
2017-12-12T00:08:31.405Z,12.97
2017-12-12T00:11:00.826Z,13.60
2017-12-12T00:13:30.588Z,14.07
2017-12-12T00:15:59.617Z,15.80
2017-12-12T00:18:29.395Z,14.57
2017-12-12T00:20:58.760Z,12.27
2017-12-12T00:23:28.168Z,16.00
2017-12-12T00:25:57.908Z,15.30
2017-12-12T00:28:27.053Z,15.30
2017-12-12T00:30:56.473Z,18.00
2017-12-12T00:33:25.444Z,18.10
2017-12-12T00:35:55.221Z,13.97
2017-12-12T00:38:24.235Z,14.90
2017-12-12T00:40:53.255Z,17.50
2017-12-12T00:43:23.027Z,15.77
2017-12-12T00:45:52.872Z,16.60
2017-12-12T00:48:22.610Z,14.03
2017-12-12T00:50:52.383Z,13.73
2017-12-12T00:53:21.929Z,17.47
2017-12-12T00:55:51.659Z,12.90
2017-12-12T00:58:20.650Z,12.37
2017-12-12T01:00:49.650Z,16.17
2017-12-12T01:03:18.623Z,17.67
2017-12-12T01:05:48.005Z,13.70
2017-12-12T01:08:16.976Z,12.60
2017-12-12T01:10:45.982Z,16.67
2017-12-12T01:13:15.749Z,17.23
2017-12-12T01:15:44.773Z,16.63
2017-12-12T01:18:14.619Z,17.37
2017-12-12T01:20:44.365Z,18.20
2017-12-12T01:23:13.336Z,17.40
2017-12-12T01:25:42.747Z,18.57
2017-12-12T01:28:11.722Z,22.30
2017-12-12T01:30:41.112Z,18.40
2017-12-12T01:33:10.474Z,18.80
2017-12-12T01:35:39.477Z,16.83
2017-12-12T01:38:09.210Z,14.33
2017-12-12T01:40:38.633Z,15.67
2017-12-12T01:43:07.689Z,16.10
2017-12-12T01:45:36.683Z,19.93
2017-12-12T01:48:07.883Z,17.83
2017-12-12T01:50:37.604Z,15.20
2017-12-12T01:53:06.641Z,14.63
2017-12-12T01:55:35.621Z,17.07
2017-12-12T01:58:05.039Z,15.47
2017-12-12T02:00:34.028Z,18.80
2017-12-12T02:03:03.061Z,22.43
2017-12-12T02:05:32.447Z,19.43
2017-12-12T02:08:01.405Z,21.67
2017-12-12T02:10:30.808Z,15.20
2017-12-12T02:13:00.543Z,23.33
2017-12-12T02:15:29.552Z,15.70
2017-12-12T02:17:58.532Z,18.80
2017-12-12T02:20:27.497Z,17.73
2017-12-12T02:22:56.872Z,18.13
2017-12-12T02:25:26.598Z,17.60
2017-12-12T02:27:56.350Z,18.00
2017-12-12T02:30:25.356Z,16.63
2017-12-12T02:32:54.392Z,17.90
2017-12-12T02:35:23.746Z,14.47
2017-12-12T02:37:52.793Z,18.40
2017-12-12T02:40:22.517Z,17.50
2017-12-12T02:42:51.905Z,17.10
2017-12-12T02:45:21.710Z,18.40
2017-12-12T02:47:51.441Z,16.77
2017-12-12T02:50:20.906Z,19.70
2017-12-12T02:52:50.699Z,19.80
2017-12-12T02:55:19.711Z,15.87
2017-12-12T02:57:48.788Z,18.33
2017-12-12T03:00:18.533Z,16.10
2017-12-12T03:02:48.064Z,21.90
2017-12-12T03:05:17.425Z,19.80
2017-12-12T03:07:46.392Z,15.03
2017-12-12T03:10:17.009Z,12.73
2017-12-12T03:12:46.761Z,15.33
2017-12-12T03:15:17.983Z,15.77
2017-12-12T03:17:46.936Z,14.03
2017-12-12T03:20:15.907Z,14.57
2017-12-12T03:22:45.692Z,14.53
2017-12-12T03:25:15.434Z,15.37
2017-12-12T03:27:45.207Z,14.63
2017-12-12T03:30:14.411Z,10.90
2017-12-12T03:32:43.773Z,15.90
2017-12-12T03:35:12.838Z,11.37
2017-12-12T03:37:42.720Z,17.73
2017-12-12T03:40:11.734Z,13.70
2017-12-12T03:42:41.465Z,16.53
2017-12-12T03:45:10.456Z,15.00
2017-12-12T03:47:39.412Z,13.17
2017-12-12T03:50:08.446Z,13.13
2017-12-12T03:52:37.442Z,16.73
2017-12-12T03:55:06.413Z,10.53
2017-12-12T03:57:36.152Z,15.27
2017-12-12T04:00:05.116Z,13.07
2017-12-12T04:02:34.115Z,11.50
2017-12-12T04:05:03.119Z,16.03
2017-12-12T04:07:32.125Z,12.23
2017-12-12T04:10:01.891Z,17.63
2017-12-12T04:12:31.258Z,13.93
2017-12-12T04:15:00.259Z,10.30
2017-12-12T04:17:29.659Z,16.37
2017-12-12T04:19:58.648Z,11.03
2017-12-12T04:22:27.632Z,12.60
2017-12-12T04:24:57.381Z,16.40
2017-12-12T04:27:27.127Z,17.83
2017-12-12T04:29:56.097Z,12.23
2017-12-12T04:32:25.491Z,11.53
2017-12-12T04:34:55.253Z,10.57
2017-12-12T04:37:24.212Z,11.60
2017-12-12T04:39:53.196Z,11.53
2017-12-12T04:42:22.177Z,9.10
2017-12-12T04:44:51.940Z,10.43
2017-12-12T04:47:21.725Z,11.40
2017-12-12T04:49:50.746Z,8.47
2017-12-12T04:52:19.818Z,9.00
2017-12-12T04:54:48.775Z,10.67
2017-12-12T04:57:18.505Z,14.07
2017-12-12T04:59:47.889Z,13.70
2017-12-12T05:02:17.621Z,10.90
2017-12-12T05:04:46.617Z,13.57
2017-12-12T05:07:15.588Z,8.83
2017-12-12T05:09:44.937Z,9.63
2017-12-12T05:12:13.905Z,11.67
2017-12-12T05:14:43.632Z,8.90
2017-12-12T05:17:13.016Z,10.70
2017-12-12T05:19:41.981Z,10.53
2017-12-12T05:22:11.747Z,13.60
2017-12-12T05:24:40.721Z,12.57
2017-12-12T05:27:11.207Z,12.20
2017-12-12T05:29:41.774Z,14.67
2017-12-12T05:32:10.778Z,11.53
2017-12-12T05:34:39.789Z,19.07
2017-12-12T05:37:08.817Z,12.37
2017-12-12T05:39:38.610Z,13.10
2017-12-12T05:42:07.562Z,14.70
2017-12-12T05:44:37.318Z,15.10
2017-12-12T05:47:06.318Z,15.07
2017-12-12T05:49:36.082Z,13.63
2017-12-12T05:52:05.041Z,14.23
2017-12-12T05:54:34.496Z,12.43
2017-12-12T05:57:03.450Z,12.73
2017-12-12T05:59:32.453Z,9.00
2017-12-12T06:02:01.422Z,13.70
2017-12-12T06:04:30.429Z,10.80
2017-12-12T06:06:59.452Z,16.10
2017-12-12T06:09:28.404Z,12.47
2017-12-12T06:11:57.432Z,17.13
2017-12-12T06:14:26.390Z,12.37
2017-12-12T06:16:55.401Z,11.63
2017-12-12T06:19:24.416Z,15.37
2017-12-12T06:21:53.739Z,14.57
2017-12-12T06:24:23.106Z,13.27
2017-12-12T06:26:52.104Z,11.57
2017-12-12T06:29:21.100Z,11.73
2017-12-12T06:31:50.503Z,12.27
2017-12-12T06:34:19.503Z,15.93
2017-12-12T06:36:48.562Z,12.23
2017-12-12T06:39:17.558Z,11.80
2017-12-12T06:41:46.545Z,16.23
2017-12-12T06:44:15.567Z,11.40
2017-12-12T06:46:44.557Z,13.17
2017-12-12T06:49:13.962Z,12.43
2017-12-12T06:51:42.942Z,10.83
2017-12-12T06:54:12.739Z,12.67
2017-12-12T06:56:41.710Z,13.13
2017-12-12T06:59:10.704Z,10.30
2017-12-12T07:01:40.502Z,15.03
2017-12-12T07:04:09.935Z,10.73
2017-12-12T07:06:38.979Z,13.00
2017-12-12T07:09:08.766Z,12.83
2017-12-12T07:11:37.721Z,18.10
2017-12-12T07:14:06.721Z,14.67
2017-12-12T07:16:35.796Z,12.37
2017-12-12T07:19:05.527Z,11.83
2017-12-12T07:21:34.551Z,11.47
2017-12-12T07:24:03.561Z,13.50
2017-12-12T07:26:33.348Z,15.20
2017-12-12T07:29:02.331Z,15.70
2017-12-12T07:31:31.332Z,16.40
2017-12-12T07:34:00.291Z,10.00
2017-12-12T07:36:29.292Z,12.67
2017-12-12T07:38:58.724Z,13.50
2017-12-12T07:41:27.794Z,9.80
2017-12-12T07:43:57.529Z,10.73
2017-12-12T07:46:26.525Z,12.37
2017-12-12T07:48:55.587Z,14.60
2017-12-12T07:51:24.937Z,16.80
2017-12-12T07:53:54.330Z,15.83
2017-12-12T07:56:23.303Z,12.73
2017-12-12T07:58:52.325Z,11.43
2017-12-12T08:01:21.301Z,11.93
2017-12-12T08:03:50.701Z,10.03
2017-12-12T08:06:19.696Z,10.73
2017-12-12T08:08:49.434Z,11.97
2017-12-12T08:11:19.190Z,11.67
2017-12-12T08:13:48.173Z,16.13
2017-12-12T08:16:17.942Z,10.80
2017-12-12T08:18:47.688Z,11.33
2017-12-12T08:21:16.749Z,13.17
2017-12-12T08:23:46.499Z,11.73
2017-12-12T08:26:15.521Z,11.90
2017-12-12T08:28:44.554Z,14.43
2017-12-12T08:31:14.378Z,11.63
2017-12-12T08:33:43.511Z,10.63
2017-12-12T08:36:12.866Z,10.87
2017-12-12T08:38:42.625Z,10.00
2017-12-12T08:41:11.761Z,9.97
2017-12-12T08:43:40.747Z,8.90
2017-12-12T08:46:09.764Z,10.30
2017-12-12T08:48:38.723Z,9.50
2017-12-12T08:51:07.847Z,10.20
2017-12-12T08:53:37.740Z,9.33
2017-12-12T08:56:06.734Z,12.13
2017-12-12T08:58:36.487Z,9.17
2017-12-12T09:01:05.498Z,9.53
2017-12-12T09:03:34.497Z,10.23
2017-12-12T09:06:03.917Z,11.43
2017-12-12T09:08:32.902Z,8.50
2017-12-12T09:11:01.948Z,10.87
2017-12-12T09:13:31.720Z,13.73
2017-12-12T09:16:01.457Z,8.70
2017-12-12T09:18:31.224Z,8.07
2017-12-12T09:21:00.576Z,8.53
2017-12-12T09:23:29.537Z,8.10
2017-12-12T09:25:59.310Z,6.80
2017-12-12T09:28:28.281Z,8.13
2017-12-12T09:30:57.286Z,9.57
2017-12-12T09:33:26.730Z,8.83
2017-12-12T09:35:56.544Z,7.03
2017-12-12T09:38:25.766Z,11.77
2017-12-12T09:40:55.616Z,7.03
2017-12-12T09:43:24.601Z,9.87
2017-12-12T09:45:53.587Z,7.83
2017-12-12T09:48:22.645Z,8.40
2017-12-12T09:50:52.110Z,7.83
2017-12-12T09:53:21.880Z,8.97
2017-12-12T09:55:51.640Z,5.90
2017-12-12T09:58:20.641Z,7.10
2017-12-12T10:00:49.612Z,5.50
2017-12-12T10:03:18.617Z,6.50
2017-12-12T10:05:47.623Z,6.17
2017-12-12T10:08:16.639Z,6.10
2017-12-12T10:10:46.404Z,9.23
2017-12-12T10:13:15.393Z,6.73
2017-12-12T10:15:44.417Z,5.50
2017-12-12T10:18:13.406Z,5.10
2017-12-12T10:20:42.398Z,6.20
2017-12-12T10:23:11.790Z,5.30
2017-12-12T10:25:41.599Z,5.20
2017-12-12T10:28:10.628Z,6.03
2017-12-12T10:30:40.427Z,6.77
2017-12-12T10:33:09.527Z,5.10
2017-12-12T10:35:38.490Z,7.45
2017-12-12T10:38:07.489Z,5.83
2017-12-12T10:40:36.456Z,7.90
2017-12-12T10:43:06.224Z,7.60
2017-12-12T10:45:35.613Z,12.53
2017-12-12T10:48:04.620Z,6.03
2017-12-12T10:50:34.660Z,6.73
2017-12-12T10:53:03.608Z,7.67
2017-12-12T10:55:32.710Z,8.30
2017-12-12T10:58:02.460Z,5.50
2017-12-12T11:00:31.838Z,7.90
2017-12-12T11:03:03.357Z,7.77
2017-12-12T11:05:32.330Z,10.73
2017-12-12T11:08:01.989Z,8.27
2017-12-12T11:10:31.426Z,6.77
2017-12-12T11:13:01.218Z,10.43
2017-12-12T11:15:30.299Z,6.43
2017-12-12T11:18:00.074Z,5.60
2017-12-12T11:20:29.649Z,5.67
2017-12-12T11:22:58.617Z,8.27
2017-12-12T11:25:27.634Z,8.93
2017-12-12T11:27:56.608Z,10.40
2017-12-12T11:30:25.566Z,8.03
2017-12-12T11:32:54.581Z,11.60
2017-12-12T11:35:23.588Z,7.90
2017-12-12T11:37:52.584Z,9.57
2017-12-12T11:40:21.561Z,8.00
2017-12-12T11:42:50.566Z,7.63
2017-12-12T11:45:20.388Z,12.27
2017-12-12T11:47:49.361Z,7.67
2017-12-12T11:50:18.372Z,7.27
2017-12-12T11:52:47.740Z,9.50
2017-12-12T11:55:17.491Z,5.37
2017-12-12T11:57:47.215Z,13.83
2017-12-12T12:00:16.200Z,11.73
2017-12-12T12:02:45.578Z,7.20
2017-12-12T12:05:14.579Z,3.80
2017-12-12T12:07:43.591Z,5.30
2017-12-12T12:10:12.670Z,6.03
2017-12-12T12:12:41.633Z,3.37
2017-12-12T12:15:11.148Z,3.03
2017-12-12T12:17:40.547Z,4.03
2017-12-12T12:20:09.525Z,2.33
2017-12-12T12:22:39.295Z,4.63
2017-12-12T12:25:08.732Z,2.47
2017-12-12T12:27:37.744Z,3.40
2017-12-12T12:30:07.813Z,7.47
2017-12-12T12:32:36.789Z,2.07
2017-12-12T12:35:06.939Z,2.60
2017-12-12T12:37:35.940Z,2.80
2017-12-12T12:40:05.197Z,1.97
2017-12-12T12:42:34.143Z,3.23
2017-12-12T12:45:03.879Z,2.27
2017-12-12T12:47:32.851Z,2.40
2017-12-12T12:50:02.636Z,3.00
2017-12-12T12:52:31.668Z,2.30
2017-12-12T12:55:00.649Z,2.70
2017-12-12T12:57:29.629Z,3.27
2017-12-12T12:59:59.408Z,3.30
2017-12-12T13:02:28.390Z,3.13
2017-12-12T13:04:57.442Z,4.50
2017-12-12T13:07:26.427Z,3.60
2017-12-12T13:09:59.424Z,7.30
2017-12-12T13:12:28.677Z,5.30
2017-12-12T13:14:58.400Z,3.13
2017-12-12T13:17:27.949Z,5.63
2017-12-12T13:19:59.261Z,3.03
2017-12-12T13:22:28.815Z,4.17
2017-12-12T13:24:57.857Z,4.67
2017-12-12T13:27:26.903Z,5.80
2017-12-12T13:29:57.018Z,3.03
2017-12-12T13:32:26.593Z,4.63
2017-12-12T13:34:56.461Z,3.10
2017-12-12T13:37:25.432Z,4.20
2017-12-12T13:39:54.400Z,3.40
2017-12-12T13:42:23.380Z,4.23
2017-12-12T13:44:52.738Z,4.50
2017-12-12T13:47:21.723Z,5.47
2017-12-12T13:49:50.717Z,3.60
2017-12-12T13:52:19.838Z,2.83
2017-12-12T13:54:49.852Z,3.17
2017-12-12T13:57:19.592Z,3.57
2017-12-12T13:59:48.623Z,4.13
2017-12-12T14:02:17.696Z,5.27
2017-12-12T14:04:46.659Z,7.00
2017-12-12T14:07:16.399Z,3.70
2017-12-12T14:09:45.416Z,4.67
2017-12-12T14:12:14.372Z,3.77
2017-12-12T14:14:44.125Z,5.30
2017-12-12T14:17:13.527Z,3.80
2017-12-12T14:19:43.307Z,6.53
2017-12-12T14:22:12.313Z,5.40
2017-12-12T14:24:41.782Z,5.50
2017-12-12T14:27:11.613Z,4.93
2017-12-12T14:29:40.628Z,5.27
2017-12-12T14:32:09.627Z,6.20
2017-12-12T14:34:38.587Z,4.60
2017-12-12T14:37:07.595Z,5.57
2017-12-12T14:39:37.394Z,4.77
2017-12-12T14:42:06.359Z,5.37
2017-12-12T14:44:35.772Z,6.87
2017-12-12T14:47:05.534Z,6.23
2017-12-12T14:49:34.516Z,4.33
2017-12-12T14:52:03.562Z,4.07
2017-12-12T14:54:33.334Z,7.70
2017-12-12T14:57:02.346Z,5.13
2017-12-12T14:59:31.329Z,5.13
2017-12-12T15:02:00.320Z,6.67
2017-12-12T15:04:29.311Z,6.30
2017-12-12T15:06:58.302Z,7.70
2017-12-12T15:09:27.315Z,5.57
2017-12-12T15:11:56.388Z,7.47
2017-12-12T15:14:25.340Z,7.17
2017-12-12T15:16:54.345Z,8.03
2017-12-12T15:19:23.371Z,5.93
2017-12-12T15:21:52.458Z,9.60
2017-12-12T15:24:21.412Z,7.80
2017-12-12T15:26:50.839Z,7.03
2017-12-12T15:29:19.853Z,5.53
2017-12-12T15:31:49.600Z,6.30
2017-12-12T15:34:19.364Z,11.40
2017-12-12T15:36:48.347Z,12.63
2017-12-12T15:39:17.829Z,10.27
2017-12-12T15:41:47.559Z,10.30
2017-12-12T15:44:16.969Z,9.20
2017-12-12T15:46:46.373Z,10.67
2017-12-12T15:49:15.336Z,8.00
2017-12-12T15:51:45.098Z,8.10
2017-12-12T15:54:14.464Z,8.77
2017-12-12T15:56:43.452Z,11.00
2017-12-12T15:59:12.401Z,12.20
2017-12-12T16:01:41.401Z,6.90
2017-12-12T16:04:10.378Z,11.27
2017-12-12T16:06:40.117Z,8.87
2017-12-12T16:09:09.087Z,8.70
2017-12-12T16:11:38.843Z,21.47
2017-12-12T16:14:07.818Z,14.37
2017-12-12T16:16:36.830Z,8.40
2017-12-12T16:19:05.902Z,13.77
2017-12-12T16:21:35.665Z,11.23
2017-12-12T16:24:04.662Z,10.17
2017-12-12T16:26:34.433Z,18.57
2017-12-12T16:29:03.410Z,15.83
2017-12-12T16:31:32.771Z,12.17
2017-12-12T16:34:02.568Z,22.53
2017-12-12T16:36:32.352Z,22.53
2017-12-12T16:39:01.318Z,21.87
2017-12-12T16:41:30.294Z,17.10
2017-12-12T16:43:59.303Z,42.93
2017-12-12T16:46:28.353Z,20.03
2017-12-12T16:48:57.411Z,55.13
2017-12-12T16:51:26.420Z,41.00
2017-12-12T16:53:55.425Z,38.67
2017-12-12T16:56:24.431Z,21.53
2017-12-12T16:58:54.266Z,14.60
2017-12-12T17:01:23.251Z,20.20
2017-12-12T17:03:52.279Z,13.60
2017-12-12T17:06:22.043Z,14.30
2017-12-12T17:08:51.793Z,17.90
2017-12-12T17:11:20.762Z,12.73
2017-12-12T17:13:50.519Z,14.00
2017-12-12T17:16:19.548Z,14.00
2017-12-12T17:18:49.272Z,14.73
2017-12-12T17:21:18.262Z,10.50
2017-12-12T17:23:47.252Z,14.27
2017-12-12T17:26:16.627Z,14.03
2017-12-12T17:28:45.640Z,18.47
2017-12-12T17:31:15.398Z,16.37
2017-12-12T17:33:44.461Z,22.37
2017-12-12T17:36:13.848Z,19.03
2017-12-12T17:38:43.232Z,12.60
2017-12-12T17:41:12.241Z,13.57
2017-12-12T17:43:41.605Z,19.60
2017-12-12T17:46:10.639Z,16.70
2017-12-12T17:48:40.375Z,10.27
2017-12-12T17:51:09.390Z,15.10
2017-12-12T17:53:38.499Z,15.37
2017-12-12T17:56:07.543Z,12.47
2017-12-12T17:58:36.510Z,13.97
2017-12-12T18:01:05.467Z,15.10
2017-12-12T18:03:34.480Z,11.00
2017-12-12T18:06:03.529Z,13.87
2017-12-12T18:08:32.846Z,13.37
2017-12-12T18:11:02.620Z,17.07
2017-12-12T18:13:31.772Z,11.70
2017-12-12T18:16:01.540Z,17.93
2017-12-12T18:18:30.517Z,13.70
2017-12-12T18:20:59.517Z,13.50
2017-12-12T18:23:28.559Z,11.00
2017-12-12T18:25:58.466Z,12.47
2017-12-12T18:28:27.441Z,11.27
2017-12-12T18:30:56.425Z,12.03
2017-12-12T18:33:25.456Z,13.37
2017-12-12T18:35:54.653Z,12.83
2017-12-12T18:38:23.659Z,14.40
2017-12-12T18:40:52.645Z,12.43
2017-12-12T18:43:22.474Z,12.00
2017-12-12T18:45:51.852Z,12.03
2017-12-12T18:48:21.277Z,17.50
2017-12-12T18:50:50.317Z,14.37
2017-12-12T18:53:19.365Z,16.50
2017-12-12T18:55:49.193Z,18.20
2017-12-12T18:58:18.243Z,14.03
2017-12-12T19:00:47.579Z,17.60
2017-12-12T19:03:17.402Z,15.60
2017-12-12T19:05:47.210Z,15.50
2017-12-12T19:08:16.350Z,15.27
2017-12-12T19:10:45.771Z,14.40
2017-12-12T19:13:16.332Z,17.17
2017-12-12T19:15:45.403Z,19.13
2017-12-12T19:18:14.775Z,15.73
2017-12-12T19:20:43.814Z,12.97
2017-12-12T19:23:12.810Z,16.60
2017-12-12T19:25:42.894Z,12.47
2017-12-12T19:28:12.667Z,18.00
2017-12-12T19:30:42.532Z,15.50
2017-12-12T19:33:12.376Z,19.50
2017-12-12T19:35:42.202Z,19.23
2017-12-12T19:38:11.555Z,18.70
2017-12-12T19:40:40.570Z,21.87
2017-12-12T19:43:11.934Z,17.17
2017-12-12T19:45:42.220Z,20.13
2017-12-12T19:48:11.315Z,23.50
2017-12-12T19:50:40.441Z,14.90
2017-12-12T19:53:10.298Z,16.77
2017-12-12T19:55:39.346Z,20.43
2017-12-12T19:58:08.459Z,18.17
2017-12-12T20:00:39.738Z,18.00
2017-12-12T20:03:09.855Z,17.03
2017-12-12T20:05:38.957Z,16.70
2017-12-12T20:08:08.707Z,17.20
2017-12-12T20:10:38.559Z,17.07
2017-12-12T20:13:07.852Z,15.60
2017-12-12T20:15:37.794Z,19.87
2017-12-12T20:18:07.351Z,20.07
2017-12-12T20:20:39.300Z,19.90
2017-12-12T20:23:08.739Z,19.30
2017-12-12T20:25:38.589Z,23.50
2017-12-12T20:28:07.686Z,24.47
2017-12-12T20:30:36.751Z,22.43
2017-12-12T20:33:06.003Z,22.47
2017-12-12T20:35:36.407Z,27.20
2017-12-12T20:38:05.621Z,21.97
2017-12-12T20:40:35.515Z,23.20
2017-12-12T20:43:06.314Z,28.17
2017-12-12T20:45:35.866Z,21.63
2017-12-12T20:48:06.477Z,24.87
2017-12-12T20:50:35.808Z,23.20
2017-12-12T20:53:09.284Z,21.80
2017-12-12T20:55:38.366Z,24.27
2017-12-12T20:58:08.324Z,26.67
2017-12-12T21:00:37.387Z,26.53
2017-12-12T21:03:07.843Z,27.57
2017-12-12T21:05:38.628Z,27.03
2017-12-12T21:08:07.703Z,27.67
2017-12-12T21:10:37.778Z,27.00
2017-12-12T21:13:07.596Z,28.30
2017-12-12T21:15:37.427Z,30.20
2017-12-12T21:18:07.468Z,30.73
2017-12-12T21:20:36.531Z,34.80
2017-12-12T21:23:05.567Z,23.90
2017-12-12T21:25:34.620Z,34.60
2017-12-12T21:28:04.508Z,33.93
2017-12-12T21:30:34.309Z,33.10
2017-12-12T21:33:03.426Z,34.70
2017-12-12T21:35:33.168Z,37.43
2017-12-12T21:38:02.257Z,30.83
2017-12-12T21:40:31.669Z,37.00
2017-12-12T21:43:00.721Z,35.73
2017-12-12T21:45:31.096Z,34.60
2017-12-12T21:48:00.128Z,44.75
2017-12-12T21:50:29.579Z,40.50
2017-12-12T21:52:58.610Z,33.70
2017-12-12T21:55:28.524Z,34.43
2017-12-12T21:57:57.527Z,35.63
2017-12-12T22:00:27.336Z,38.37
2017-12-12T22:02:56.773Z,37.33
2017-12-12T22:05:28.309Z,35.90
2017-12-12T22:07:58.150Z,41.73
2017-12-12T22:10:27.161Z,41.53
2017-12-12T22:12:56.924Z,38.33
2017-12-12T22:15:26.349Z,33.87
2017-12-12T22:17:55.809Z,43.00
2017-12-12T22:20:24.831Z,33.13
2017-12-12T22:22:53.902Z,36.07
2017-12-12T22:25:23.654Z,34.53
2017-12-12T22:27:53.072Z,39.03
2017-12-12T22:30:22.852Z,36.20
2017-12-12T22:32:52.219Z,49.67
2017-12-12T22:35:21.240Z,40.20
2017-12-12T22:37:51.526Z,24.47
2017-12-12T22:40:20.543Z,35.37
2017-12-12T22:42:49.507Z,38.70
2017-12-12T22:45:18.509Z,29.87
2017-12-12T22:47:47.495Z,38.33
2017-12-12T22:50:16.534Z,46.40
2017-12-12T22:52:45.566Z,33.20
2017-12-12T22:55:14.736Z,43.07
2017-12-12T22:57:43.862Z,39.27
2017-12-12T23:00:27.767Z,40.43
2017-12-12T23:02:57.593Z,39.00
2017-12-12T23:05:26.603Z,41.10
2017-12-12T23:07:55.627Z,38.87
2017-12-12T23:10:24.630Z,42.37
2017-12-12T23:12:54.001Z,39.73
2017-12-12T23:15:23.014Z,39.20
2017-12-12T23:17:51.981Z,37.60
2017-12-12T23:20:21.762Z,36.40
2017-12-12T23:22:50.771Z,35.90
2017-12-12T23:25:19.724Z,45.80
2017-12-12T23:27:48.768Z,36.40
2017-12-12T23:30:18.174Z,41.43
2017-12-12T23:32:47.581Z,41.43
2017-12-12T23:35:16.568Z,24.93
2017-12-12T23:37:45.672Z,40.27
2017-12-12T23:40:14.678Z,36.37
2017-12-12T23:42:44.100Z,37.43
2017-12-12T23:45:13.085Z,37.03
2017-12-12T23:47:42.857Z,32.23
2017-12-12T23:50:11.851Z,37.60
2017-12-12T23:52:41.630Z,39.23
2017-12-12T23:55:10.639Z,39.50
2017-12-12T23:57:39.777Z,36.03
